Time;durP1;ratioP1;P1;durP2;ratioP2;P2;SDS_P1;SDS_P2;PMS_P1;PMS_P2;Temp;Humidity;BMP_temperature;BMP_pressure;BME280_temperature;BME280_humidity;BME280_pressure;Samples;Min_cycle;Max_cycle;Signal;HPM_P1;HPM_P2
2022/10/29 00:01:43;;;;;;;4.10;0.70;;;;;;;14.33;100.00;101763.88;5036473;28;20033;-85
2022/10/29 00:04:09;;;;;;;3.53;0.80;;;;;;;14.35;100.00;101762.78;5047331;28;20061;-88
2022/10/29 00:06:34;;;;;;;4.70;0.50;;;;;;;14.32;100.00;101763.06;5028028;28;20048;-85
2022/10/29 00:09:00;;;;;;;3.60;0.60;;;;;;;14.27;100.00;101766.09;5044631;28;20056;-84
2022/10/29 00:11:25;;;;;;;4.35;0.50;;;;;;;14.24;100.00;101766.34;5044093;28;20029;-87
2022/10/29 00:13:56;;;;;;;2.50;0.50;;;;;;;14.25;100.00;101765.38;5047302;28;20501;-89
2022/10/29 00:16:24;;;;;;;4.00;0.70;;;;;;;14.26;100.00;101766.22;5028273;28;20470;-83
2022/10/29 00:18:50;;;;;;;3.13;0.60;;;;;;;14.20;100.00;101758.91;5028620;28;20356;-86
2022/10/29 00:21:18;;;;;;;3.35;0.40;;;;;;;14.12;100.00;101751.75;5044319;28;20044;-87
2022/10/29 00:23:45;;;;;;;5.07;0.80;;;;;;;14.11;100.00;101757.94;5045593;28;20029;-84
2022/10/29 00:26:11;;;;;;;6.47;0.85;;;;;;;14.07;100.00;101761.81;5027846;28;20025;-87
2022/10/29 00:28:37;;;;;;;3.92;0.60;;;;;;;14.06;100.00;101752.28;5028113;28;20032;-89
2022/10/29 00:31:09;;;;;;;5.85;0.93;;;;;;;14.05;100.00;101760.28;5044759;28;20025;-83
2022/10/29 00:33:34;;;;;;;4.80;0.80;;;;;;;14.05;100.00;101758.50;5045796;28;20104;-85
2022/10/29 00:36:05;;;;;;;3.97;0.73;;;;;;;14.05;100.00;101755.88;5046237;28;20119;-88
2022/10/29 00:38:32;;;;;;;3.47;0.68;;;;;;;14.08;100.00;101750.38;5027908;28;20115;-84
2022/10/29 00:40:58;;;;;;;2.85;0.57;;;;;;;14.09;100.00;101748.56;5027486;28;20020;-85
2022/10/29 00:43:25;;;;;;;4.97;0.50;;;;;;;14.14;100.00;101749.00;5045914;28;20098;-89
2022/10/29 00:46:29;;;;;;;4.20;0.70;;;;;;;13.83;100.00;101756.91;5027349;28;20099;-84
2022/10/29 00:48:56;;;;;;;2.38;0.50;;;;;;;13.68;100.00;101752.22;4994979;28;20057;-84
2022/10/29 00:51:22;;;;;;;1.85;0.55;;;;;;;13.55;100.00;101753.28;5045406;28;20025;-87
2022/10/29 00:53:55;;;;;;;3.47;0.60;;;;;;;13.41;100.00;101748.38;5028847;28;20040;-86
2022/10/29 00:56:23;;;;;;;4.55;0.57;;;;;;;13.47;100.00;101750.47;5028564;28;20021;-85
2022/10/29 00:58:49;;;;;;;4.93;0.82;;;;;;;13.63;100.00;101744.75;5044776;28;20036;-87
2022/10/29 01:01:14;;;;;;;2.95;0.60;;;;;;;13.71;100.00;101750.13;5045287;28;20029;-84
2022/10/29 01:03:40;;;;;;;3.38;0.80;;;;;;;13.71;100.00;101741.44;5047171;28;20032;-90
2022/10/29 01:06:06;;;;;;;3.88;0.88;;;;;;;13.72;100.00;101737.84;5026987;28;20074;-86
2022/10/29 01:08:32;;;;;;;2.30;0.47;;;;;;;13.76;100.00;101734.00;5046586;28;20086;-86
2022/10/29 01:11:13;;;;;;;5.95;0.70;;;;;;;13.79;100.00;101736.38;5044155;28;20044;-87
2022/10/29 01:13:53;;;;;;;5.53;0.63;;;;;;;13.83;100.00;101740.38;5038387;28;20223;-86
2022/10/29 01:16:19;;;;;;;2.72;0.47;;;;;;;13.86;100.00;101738.31;5029508;28;20037;-87
2022/10/29 01:18:53;;;;;;;3.78;0.43;;;;;;;13.94;100.00;101735.03;5046605;28;20036;-89
2022/10/29 01:21:37;;;;;;;5.47;0.50;;;;;;;13.86;100.00;101724.38;5046903;28;20037;-86
2022/10/29 01:24:45;;;;;;;3.53;0.90;;;;;;;13.78;100.00;101724.22;5030737;28;20017;-86
2022/10/29 01:28:05;;;;;;;2.78;0.75;;;;;;;13.73;100.00;101718.56;5047847;28;20037;-87
2022/10/29 01:30:53;;;;;;;5.53;0.63;;;;;;;13.68;100.00;101713.75;4969955;28;20030;-88
2022/10/29 01:33:39;;;;;;;1.50;0.65;;;;;;;13.65;100.00;101719.25;4970808;28;20046;-90
2022/10/29 01:36:14;;;;;;;4.32;0.70;;;;;;;13.61;100.00;101716.09;4967937;28;20510;-89
2022/10/29 01:39:01;;;;;;;7.70;0.98;;;;;;;13.63;100.00;101713.31;4966371;28;20051;-84
2022/10/29 01:41:45;;;;;;;1.40;0.43;;;;;;;13.58;100.00;101711.09;4971405;28;20046;-83
2022/10/29 01:44:16;;;;;;;4.07;0.77;;;;;;;13.55;100.00;101715.78;4968480;28;20043;-83
2022/10/29 01:46:48;;;;;;;4.55;0.77;;;;;;;13.47;100.00;101711.22;4965803;28;20071;-85
2022/10/29 01:49:20;;;;;;;8.98;0.90;;;;;;;13.43;100.00;101712.44;4970655;28;20027;-84
2022/10/29 01:51:48;;;;;;;8.35;0.80;;;;;;;13.41;100.00;101710.91;4967928;28;20195;-87
2022/10/29 01:54:14;;;;;;;5.72;0.93;;;;;;;13.39;100.00;101716.28;4967830;28;20031;-84
2022/10/29 01:56:39;;;;;;;6.32;1.25;;;;;;;13.39;100.00;101713.66;4950088;28;20529;-83
2022/10/29 01:59:09;;;;;;;6.95;0.70;;;;;;;13.37;100.00;101710.34;4972676;28;20218;-85
2022/10/29 02:02:04;;;;;;;4.55;0.95;;;;;;;13.35;100.00;101709.66;4969963;28;20442;-87
2022/10/29 02:04:29;;;;;;;6.10;0.88;;;;;;;13.38;100.00;101712.00;4986611;28;20043;-85
2022/10/29 02:06:59;;;;;;;5.82;1.15;;;;;;;13.37;100.00;101710.34;5049799;28;20434;-85
2022/10/29 02:09:45;;;;;;;4.70;0.77;;;;;;;13.38;100.00;101709.38;5029484;28;20095;-85
2022/10/29 02:12:20;;;;;;;5.53;1.05;;;;;;;13.37;100.00;101712.97;5030733;28;20408;-84
2022/10/29 02:14:53;;;;;;;6.82;0.80;;;;;;;13.35;100.00;101704.41;5049986;28;20075;-84
2022/10/29 02:17:18;;;;;;;4.90;1.15;;;;;;;13.34;100.00;101705.38;5035896;28;20078;-89
2022/10/29 02:19:44;;;;;;;4.43;1.27;;;;;;;13.31;100.00;101718.72;5050483;28;20033;-88
2022/10/29 02:22:09;;;;;;;5.25;1.10;;;;;;;13.25;100.00;101709.59;5045420;28;20052;-85
2022/10/29 02:24:35;;;;;;;6.13;0.80;;;;;;;13.22;100.00;101711.69;5031729;28;20086;-86
2022/10/29 02:27:00;;;;;;;7.07;0.68;;;;;;;13.21;100.00;101703.00;5046338;28;20100;-83
2022/10/29 02:29:26;;;;;;;5.25;0.80;;;;;;;13.23;100.00;101700.25;5048523;28;20025;-88
2022/10/29 02:31:51;;;;;;;4.47;0.70;;;;;;;13.28;100.00;101698.03;5030698;28;20413;-88
2022/10/29 02:34:16;;;;;;;2.28;0.90;;;;;;;13.30;100.00;101701.34;5047318;28;20075;-85
2022/10/29 02:36:42;;;;;;;7.22;1.40;;;;;;;13.30;100.00;101698.75;5046830;28;20029;-84
2022/10/29 02:39:07;;;;;;;3.42;0.70;;;;;;;13.28;100.00;101696.25;5031278;28;20029;-87
2022/10/29 02:41:32;;;;;;;4.40;0.98;;;;;;;13.25;100.00;101691.28;5048043;28;20507;-86
2022/10/29 02:43:58;;;;;;;10.55;0.70;;;;;;;13.23;100.00;101689.78;5047749;28;20029;-89
2022/10/29 02:46:24;;;;;;;4.57;0.88;;;;;;;13.21;100.00;101694.31;5045986;28;20391;-84
2022/10/29 02:48:50;;;;;;;2.88;0.68;;;;;;;13.21;100.00;101687.31;5045436;28;20421;-84
2022/10/29 02:51:16;;;;;;;4.10;0.50;;;;;;;13.24;100.00;101686.19;5030721;28;20032;-86
2022/10/29 02:53:42;;;;;;;2.28;0.63;;;;;;;13.24;100.00;101680.94;5047983;28;20123;-86
2022/10/29 02:56:08;;;;;;;4.45;0.52;;;;;;;13.21;100.00;101681.25;5045629;28;20059;-87
2022/10/29 02:58:34;;;;;;;2.70;0.40;;;;;;;13.16;100.00;101688.66;5029374;28;20488;-86
2022/10/29 03:01:00;;;;;;;3.95;0.57;;;;;;;13.15;100.00;101682.56;5057751;28;20029;-83
2022/10/29 03:03:26;;;;;;;3.65;0.70;;;;;;;13.14;100.00;101673.06;5065603;28;20112;-82
2022/10/29 03:05:52;;;;;;;7.78;0.68;;;;;;;13.15;100.00;101682.56;5056597;28;20044;-82
2022/10/29 03:08:18;;;;;;;2.33;0.60;;;;;;;13.17;100.00;101679.84;5060390;28;20025;-80
2022/10/29 03:10:43;;;;;;;5.30;0.50;;;;;;;13.13;100.00;101684.47;5057495;28;20036;-84
2022/10/29 03:13:09;;;;;;;4.70;1.13;;;;;;;13.11;100.00;101688.19;5044696;28;20042;-86
2022/10/29 03:15:34;;;;;;;3.35;0.93;;;;;;;13.09;100.00;101687.47;5027909;28;20041;-86
2022/10/29 03:18:00;;;;;;;2.88;0.50;;;;;;;13.05;100.00;101683.47;5010248;28;20025;-86
2022/10/29 03:20:25;;;;;;;5.68;0.80;;;;;;;13.00;100.00;101683.03;5026997;28;20036;-84
2022/10/29 03:22:51;;;;;;;7.25;0.75;;;;;;;12.92;100.00;101686.28;5026747;28;20017;-87
2022/10/29 03:25:16;;;;;;;4.75;0.52;;;;;;;12.84;100.00;101684.31;5026853;28;20477;-84
2022/10/29 03:27:45;;;;;;;4.20;0.85;;;;;;;12.80;100.00;101689.94;5027713;28;20033;-84
2022/10/29 03:30:12;;;;;;;5.22;0.80;;;;;;;12.81;100.00;101681.97;5026348;28;20048;-84
2022/10/29 03:32:41;;;;;;;3.80;0.80;;;;;;;12.81;100.00;101684.59;5032873;28;20040;-87
2022/10/29 03:35:08;;;;;;;3.15;0.60;;;;;;;12.80;100.00;101677.69;5025963;28;20029;-84
2022/10/29 03:37:33;;;;;;;3.30;0.55;;;;;;;12.90;100.00;101672.50;5024122;28;20021;-84
2022/10/29 03:39:59;;;;;;;2.05;0.55;;;;;;;12.93;100.00;101664.41;5012503;28;20035;-85
2022/10/29 03:42:24;;;;;;;6.40;0.57;;;;;;;12.98;100.00;101651.78;5009210;28;20033;-85
2022/10/29 03:44:50;;;;;;;1.90;0.50;;;;;;;13.00;100.00;101659.50;5008127;28;20037;-86
2022/10/29 03:47:15;;;;;;;1.88;0.93;;;;;;;12.91;100.00;101656.69;5007827;28;20021;-87
2022/10/29 03:49:40;;;;;;;2.75;0.60;;;;;;;12.73;100.00;101657.44;5025643;28;20488;-82
2022/10/29 03:52:06;;;;;;;4.70;0.75;;;;;;;12.53;100.00;101651.25;5008291;28;20036;-85
2022/10/29 03:54:31;;;;;;;2.45;0.60;;;;;;;12.39;100.00;101662.88;5027823;28;20525;-90
2022/10/29 03:56:56;;;;;;;1.67;0.85;;;;;;;12.25;100.00;101653.56;5022014;28;20026;-84
2022/10/29 03:59:22;;;;;;;5.05;0.65;;;;;;;12.34;100.00;101669.41;5029366;28;20029;-88
2022/10/29 04:01:47;;;;;;;1.70;0.70;;;;;;;12.57;100.00;101663.13;5014223;28;20035;-85
2022/10/29 04:04:13;;;;;;;4.55;0.63;;;;;;;12.74;100.00;101669.56;5011631;28;20036;-84
2022/10/29 04:06:38;;;;;;;2.80;0.60;;;;;;;12.82;100.00;101665.31;5026759;28;20576;-87
2022/10/29 04:09:03;;;;;;;2.97;0.88;;;;;;;12.88;100.00;101675.25;5007951;28;20480;-85
2022/10/29 04:11:29;;;;;;;2.80;0.65;;;;;;;12.91;100.00;101682.03;5025496;28;20239;-82
2022/10/29 04:13:54;;;;;;;3.50;0.80;;;;;;;12.92;100.00;101687.13;5013472;28;20062;-87
2022/10/29 04:16:20;;;;;;;4.07;0.70;;;;;;;12.80;100.00;101684.72;5024674;28;20026;-87
2022/10/29 04:18:46;;;;;;;7.00;0.77;;;;;;;12.70;100.00;101692.53;5026262;28;20358;-88
2022/10/29 04:21:12;;;;;;;1.20;0.70;;;;;;;12.68;100.00;101685.75;5026760;28;20021;-85
2022/10/29 04:23:37;;;;;;;4.57;0.63;;;;;;;12.65;100.00;101684.22;5026106;28;20116;-88
2022/10/29 04:26:02;;;;;;;5.78;0.82;;;;;;;12.64;100.00;101679.97;5026163;28;20019;-87
2022/10/29 04:28:28;;;;;;;2.10;1.33;;;;;;;12.70;100.00;101669.00;5022966;28;20485;-84
2022/10/29 04:30:53;;;;;;;4.90;0.80;;;;;;;12.75;100.00;101658.97;5025537;28;20099;-81
2022/10/29 04:33:19;;;;;;;2.42;0.75;;;;;;;12.79;100.00;101664.75;5039096;28;20060;-84
2022/10/29 04:35:51;;;;;;;2.85;0.70;;;;;;;12.81;100.00;101663.66;5026023;28;20029;-88
2022/10/29 04:38:17;;;;;;;5.90;0.70;;;;;;;12.88;100.00;101662.19;5019137;28;20033;-86
2022/10/29 04:40:42;;;;;;;3.90;0.95;;;;;;;12.89;100.00;101658.59;5025161;28;20039;-87
2022/10/29 04:43:08;;;;;;;2.70;0.75;;;;;;;12.88;100.00;101659.56;5023440;28;20104;-86
2022/10/29 04:45:33;;;;;;;11.77;0.80;;;;;;;12.87;100.00;101663.13;5023976;28;20093;-87
2022/10/29 04:48:03;;;;;;;4.93;1.02;;;;;;;12.84;100.00;101657.34;5025280;28;20038;-87
2022/10/29 04:50:30;;;;;;;3.28;1.08;;;;;;;12.86;100.00;101656.25;5028253;28;20033;-87
2022/10/29 04:53:04;;;;;;;4.78;0.90;;;;;;;12.82;100.00;101660.09;5031078;28;20037;-85
2022/10/29 04:55:30;;;;;;;7.50;1.35;;;;;;;12.81;100.00;101653.19;5027832;28;20048;-83
2022/10/29 04:57:56;;;;;;;5.63;1.10;;;;;;;12.83;100.00;101660.91;5027075;28;20431;-83
2022/10/29 05:00:22;;;;;;;4.60;0.77;;;;;;;12.77;100.00;101658.81;5026285;28;21034;-87
2022/10/29 05:02:48;;;;;;;5.78;0.60;;;;;;;12.72;100.00;101669.69;5028361;28;20484;-82
2022/10/29 05:05:15;;;;;;;3.53;0.55;;;;;;;12.72;100.00;101659.22;5027675;28;20028;-85
2022/10/29 05:07:41;;;;;;;4.45;0.63;;;;;;;12.69;100.00;101658.66;5027782;28;20057;-85
2022/10/29 05:10:07;;;;;;;2.85;0.60;;;;;;;12.63;100.00;101660.00;5029571;28;20133;-87
2022/10/29 05:12:32;;;;;;;2.15;0.50;;;;;;;12.59;100.00;101661.22;5020274;28;20543;-86
2022/10/29 05:14:57;;;;;;;4.70;0.70;;;;;;;12.57;100.00;101663.94;5032314;28;20114;-87
2022/10/29 05:17:23;;;;;;;3.80;0.60;;;;;;;12.56;100.00;101656.25;5046892;28;20175;-85
2022/10/29 05:19:48;;;;;;;6.75;0.68;;;;;;;12.57;100.00;101658.72;5048905;28;20139;-83
2022/10/29 05:22:14;;;;;;;6.57;0.40;;;;;;;12.56;100.00;101662.28;5048530;28;20041;-87
2022/10/29 05:24:39;;;;;;;6.57;0.82;;;;;;;12.56;100.00;101664.09;5050745;28;20021;-89
2022/10/29 05:27:06;;;;;;;1.90;0.50;;;;;;;12.55;100.00;101665.03;5049378;28;20246;-86
2022/10/29 05:29:31;;;;;;;4.43;0.70;;;;;;;12.55;100.00;101662.41;5055346;28;20068;-84
2022/10/29 05:31:56;;;;;;;4.82;0.77;;;;;;;12.58;100.00;101670.00;5050646;28;20509;-86
2022/10/29 05:34:22;;;;;;;8.23;0.60;;;;;;;12.58;100.00;101670.00;5033381;28;20017;-84
2022/10/29 05:36:48;;;;;;;5.45;0.70;;;;;;;12.53;100.00;101661.72;5050154;28;20032;-89
2022/10/29 05:39:13;;;;;;;9.43;0.50;;;;;;;12.52;100.00;101662.69;5029354;28;20119;-86
2022/10/29 05:41:39;;;;;;;3.72;0.50;;;;;;;12.50;100.00;101665.41;5030848;28;20111;-85
2022/10/29 05:44:04;;;;;;;3.97;0.73;;;;;;;12.52;100.00;101663.50;5051957;28;20041;-86
2022/10/29 05:46:29;;;;;;;3.65;0.70;;;;;;;12.51;100.00;101666.25;5049484;28;20425;-87
2022/10/29 05:48:55;;;;;;;6.15;0.50;;;;;;;12.47;100.00;101664.84;5051554;28;20067;-89
2022/10/29 05:51:20;;;;;;;4.60;0.60;;;;;;;12.47;100.00;101662.22;5048392;28;20029;-85
2022/10/29 05:53:46;;;;;;;2.83;0.50;;;;;;;12.46;100.00;101665.78;5036141;28;20136;-83
2022/10/29 05:56:12;;;;;;;3.35;0.43;;;;;;;12.46;100.00;101671.84;5050407;28;20098;-84
2022/10/29 05:58:37;;;;;;;2.78;0.50;;;;;;;12.42;100.00;101678.28;5050228;28;20024;-86
2022/10/29 06:01:08;;;;;;;4.38;0.50;;;;;;;12.46;100.00;101678.88;5056570;28;20066;-82
2022/10/29 06:03:33;;;;;;;2.50;0.60;;;;;;;12.46;100.00;101689.31;5057396;28;20064;-83
2022/10/29 06:06:01;;;;;;;4.43;0.50;;;;;;;12.48;100.00;101682.19;5056635;28;20024;-85
2022/10/29 06:08:26;;;;;;;3.15;0.65;;;;;;;12.48;100.00;101677.78;5042111;28;20435;-83
2022/10/29 06:10:52;;;;;;;5.00;0.70;;;;;;;12.48;100.00;101688.25;5055986;28;20045;-82
2022/10/29 06:13:19;;;;;;;3.28;0.40;;;;;;;12.48;100.00;101682.19;5059104;28;20079;-84
2022/10/29 06:15:46;;;;;;;4.32;0.80;;;;;;;12.53;100.00;101696.53;5054441;28;20092;-83
2022/10/29 06:18:12;;;;;;;6.40;0.80;;;;;;;12.59;100.00;101695.19;5054456;28;20028;-82
2022/10/29 06:20:39;;;;;;;6.10;0.50;;;;;;;12.62;100.00;101690.53;5052252;28;20029;-85
2022/10/29 06:23:04;;;;;;;2.38;0.50;;;;;;;12.65;100.00;101689.47;5034360;28;20037;-82
2022/10/29 06:25:30;;;;;;;2.03;0.43;;;;;;;12.65;100.00;101692.06;5046924;28;20025;-84
2022/10/29 06:28:03;;;;;;;4.43;0.70;;;;;;;12.64;100.00;101685.19;5048487;28;20044;-84
2022/10/29 06:30:31;;;;;;;3.35;0.40;;;;;;;12.67;100.00;101682.31;5034998;28;20024;-84
2022/10/29 06:32:56;;;;;;;3.80;0.75;;;;;;;12.74;100.00;101677.41;5056530;28;20522;-83
2022/10/29 06:35:22;;;;;;;3.08;0.40;;;;;;;12.79;100.00;101664.75;5048056;28;20195;-81
2022/10/29 06:37:48;;;;;;;3.45;0.68;;;;;;;12.81;100.00;101670.69;5044821;28;20602;-85
2022/10/29 06:40:13;;;;;;;3.15;0.50;;;;;;;12.87;100.00;101668.38;5028531;28;20029;-84
2022/10/29 06:42:39;;;;;;;2.50;0.40;;;;;;;12.95;100.00;101679.00;5045357;28;20487;-84
2022/10/29 06:45:05;;;;;;;1.85;0.40;;;;;;;13.09;100.00;101692.72;5048985;28;20116;-81
2022/10/29 06:47:30;;;;;;;3.38;0.65;;;;;;;13.11;100.00;101701.25;5041707;28;20067;-82
2022/10/29 06:49:55;;;;;;;2.83;0.40;;;;;;;13.06;100.00;101708.69;5046814;28;20130;-85
2022/10/29 06:52:21;;;;;;;2.03;0.50;;;;;;;12.98;100.00;101700.66;5044382;28;20122;-82
2022/10/29 06:54:46;;;;;;;3.25;0.50;;;;;;;12.97;100.00;101694.59;5028382;28;20032;-81
2022/10/29 06:57:12;;;;;;;5.47;0.70;;;;;;;12.99;100.00;101695.28;5029359;28;20032;-85
2022/10/29 06:59:37;;;;;;;3.83;0.38;;;;;;;12.99;100.00;101697.06;5046216;28;20060;-82
2022/10/29 07:02:03;;;;;;;5.88;0.57;;;;;;;13.02;100.00;101688.97;5046089;28;20064;-83
2022/10/29 07:04:28;;;;;;;2.80;0.50;;;;;;;13.08;100.00;101693.69;5043926;28;20025;-85
2022/10/29 07:06:54;;;;;;;1.77;0.57;;;;;;;13.14;100.00;101691.38;5046694;28;20230;-84
2022/10/29 07:09:19;;;;;;;1.98;0.40;;;;;;;13.22;100.00;101698.59;5051462;28;20025;-81
2022/10/29 07:11:44;;;;;;;6.82;0.93;;;;;;;13.26;100.00;101699.97;5025783;28;20067;-85
2022/10/29 07:14:10;;;;;;;2.22;0.40;;;;;;;13.31;100.00;101702.19;5042746;28;20048;-85
2022/10/29 07:16:35;;;;;;;6.65;0.40;;;;;;;13.32;100.00;101693.38;5037441;28;20028;-83
2022/10/29 07:19:02;;;;;;;4.35;0.70;;;;;;;13.35;100.00;101698.34;5053044;28;20029;-83
2022/10/29 07:21:27;;;;;;;3.92;0.38;;;;;;;13.36;100.00;101706.06;5041072;28;20052;-84
2022/10/29 07:23:53;;;;;;;3.75;0.40;;;;;;;13.42;100.00;101710.78;5047820;28;20025;-83
2022/10/29 07:26:18;;;;;;;1.23;0.35;;;;;;;13.45;100.00;101712.31;5046164;28;20025;-83
2022/10/29 07:28:44;;;;;;;6.13;0.70;;;;;;;13.51;100.00;101704.75;5029801;28;20362;-87
2022/10/29 07:31:09;;;;;;;2.70;0.63;;;;;;;13.59;100.00;101696.22;5048545;28;20044;-87
2022/10/29 07:33:35;;;;;;;2.58;0.40;;;;;;;13.66;100.00;101699.97;5029031;28;20043;-86
2022/10/29 07:36:00;;;;;;;4.93;0.50;;;;;;;13.76;100.00;101699.97;5030162;28;20032;-85
2022/10/29 07:38:26;;;;;;;0.93;0.30;;;;;;;13.80;100.00;101694.31;5046763;28;20032;-83
2022/10/29 07:40:52;;;;;;;2.97;0.38;;;;;;;13.89;100.00;101696.13;5046700;28;20135;-82
2022/10/29 07:43:19;;;;;;;3.65;0.40;;;;;;;14.00;100.00;101695.19;5048097;28;20049;-84
2022/10/29 07:45:48;;;;;;;2.75;0.40;;;;;;;14.09;100.00;101696.97;5048024;28;20421;-85
2022/10/29 07:48:14;;;;;;;4.38;0.47;;;;;;;14.16;100.00;101699.88;5047329;28;20048;-83
2022/10/29 07:50:39;;;;;;;1.27;0.40;;;;;;;14.21;100.00;101697.66;5048508;28;20082;-83
2022/10/29 07:53:06;;;;;;;6.32;0.50;;;;;;;14.32;100.00;101694.06;5045253;28;20037;-81
2022/10/29 07:55:31;;;;;;;4.30;0.60;;;;;;;14.38;100.00;101694.34;5029388;28;20102;-83
2022/10/29 07:58:00;;;;;;;3.85;0.40;;;;;;;14.42;100.00;101694.91;5030288;28;20056;-80
2022/10/29 08:00:29;;;;;;;1.90;0.30;;;;;;;14.44;99.88;101706.94;5048145;28;20547;-80
2022/10/29 08:02:55;;;;;;;6.13;0.63;;;;;;;14.46;100.00;101697.13;5029380;28;20463;-80
2022/10/29 08:05:22;;;;;;;2.15;0.75;;;;;;;14.52;100.00;101699.19;5046038;28;20031;-81
2022/10/29 08:07:47;;;;;;;3.15;0.50;;;;;;;14.62;99.51;101704.44;5047470;28;20021;-81
2022/10/29 08:10:13;;;;;;;5.25;0.60;;;;;;;14.73;99.73;101699.00;5047443;28;20528;-80
2022/10/29 08:12:38;;;;;;;3.92;0.40;;;;;;;14.76;99.35;101700.50;5047602;28;20433;-80
2022/10/29 08:15:04;;;;;;;4.35;0.60;;;;;;;14.77;99.85;101703.00;5046619;28;20494;-82
2022/10/29 08:17:31;;;;;;;4.05;0.60;;;;;;;14.82;98.93;101703.41;5047918;28;20120;-80
2022/10/29 08:19:56;;;;;;;3.35;0.60;;;;;;;14.85;99.82;101708.38;5049125;28;20083;-80
2022/10/29 08:22:22;;;;;;;2.13;0.50;;;;;;;14.90;99.76;101700.91;5045804;28;20411;-80
2022/10/29 08:24:48;;;;;;;5.57;0.50;;;;;;;15.01;98.96;101706.94;5046583;28;20029;-81
2022/10/29 08:27:13;;;;;;;4.32;0.60;;;;;;;15.08;98.76;101695.75;5047222;28;20179;-81
2022/10/29 08:29:39;;;;;;;2.25;0.40;;;;;;;15.17;98.46;101689.59;5048252;28;20464;-80
2022/10/29 08:32:04;;;;;;;6.43;1.15;;;;;;;15.24;98.19;101689.84;5047018;28;20108;-81
2022/10/29 08:34:30;;;;;;;2.05;0.45;;;;;;;15.36;96.92;101690.50;5042237;28;20029;-81
2022/10/29 08:36:55;;;;;;;2.33;0.40;;;;;;;15.43;96.92;101692.38;5044974;28;20021;-80
2022/10/29 08:39:20;;;;;;;2.65;0.30;;;;;;;15.49;96.27;101688.34;5046983;28;20068;-81
2022/10/29 08:41:55;;;;;;;2.28;0.40;;;;;;;15.51;96.00;101691.66;5048465;28;20047;-80
2022/10/29 08:44:39;;;;;;;7.15;0.40;;;;;;;15.51;95.05;101684.59;5048467;28;20037;-80
2022/10/29 08:47:12;;;;;;;5.40;0.80;;;;;;;15.68;95.34;101684.78;5040529;28;20040;-80
2022/10/29 08:50:13;;;;;;;5.20;0.40;;;;;;;15.84;93.57;101687.59;5047352;28;20087;-80
2022/10/29 08:52:41;;;;;;;3.45;0.63;;;;;;;15.90;96.16;101690.47;4965644;28;20516;-81
2022/10/29 08:55:36;;;;;;;2.75;0.77;;;;;;;15.96;93.36;101699.56;4966252;28;20037;-80
2022/10/29 08:58:18;;;;;;;2.60;0.38;;;;;;;16.05;94.09;101700.47;4966798;28;20057;-82
2022/10/29 09:00:45;;;;;;;3.60;0.43;;;;;;;16.11;95.57;101698.03;4950254;28;20166;-80
2022/10/29 09:03:11;;;;;;;2.03;0.40;;;;;;;16.15;94.74;101690.66;4967024;28;20128;-80
2022/10/29 09:06:07;;;;;;;7.70;0.60;;;;;;;16.24;91.36;101681.88;4965896;28;20027;-80
2022/10/29 09:08:39;;;;;;;6.70;0.50;;;;;;;16.50;93.08;101690.66;4963690;28;20471;-81
2022/10/29 09:11:32;;;;;;;4.57;0.40;;;;;;;16.73;90.62;101687.53;4966134;28;20038;-80
2022/10/29 09:14:16;;;;;;;4.60;0.85;;;;;;;16.75;90.74;101686.38;4955458;28;20058;-81
2022/10/29 09:16:47;;;;;;;1.92;0.30;;;;;;;16.70;93.17;101683.41;4948128;28;20034;-81
2022/10/29 09:19:21;;;;;;;5.63;0.50;;;;;;;16.81;90.93;101685.78;4962847;28;20039;-80
2022/10/29 09:22:00;;;;;;;3.15;0.60;;;;;;;17.01;90.79;101685.56;4963569;28;20079;-80
2022/10/29 09:24:48;;;;;;;3.58;0.47;;;;;;;16.92;90.54;101680.25;4962404;28;20121;-81
2022/10/29 09:27:21;;;;;;;3.83;0.50;;;;;;;17.18;87.12;101687.25;5013636;28;20044;-81
2022/10/29 09:30:17;;;;;;;4.97;0.57;;;;;;;17.17;88.19;101675.91;5043780;28;20036;-81
2022/10/29 09:33:09;;;;;;;5.60;0.60;;;;;;;17.10;87.64;101679.31;5044294;28;20034;-79
2022/10/29 09:35:34;;;;;;;4.25;0.45;;;;;;;17.10;89.83;101679.31;5049270;28;20441;-80
2022/10/29 09:38:07;;;;;;;3.08;0.35;;;;;;;17.22;88.79;101678.06;5042426;28;20118;-81
2022/10/29 09:40:36;;;;;;;3.28;0.30;;;;;;;17.21;88.87;101674.59;5048797;28;20302;-81
2022/10/29 09:43:14;;;;;;;1.23;0.30;;;;;;;17.14;89.33;101672.75;5048056;28;20056;-81
2022/10/29 09:45:49;;;;;;;3.58;0.30;;;;;;;17.10;87.58;101680.16;5030012;28;20419;-81
2022/10/29 09:48:31;;;;;;;4.65;0.40;;;;;;;17.22;87.55;101672.81;5051075;28;20455;-80
2022/10/29 09:51:07;;;;;;;2.72;0.30;;;;;;;17.33;88.12;101674.31;5050439;28;20096;-81
2022/10/29 09:53:33;;;;;;;2.55;0.40;;;;;;;17.34;89.66;101681.25;5048679;28;20051;-82
2022/10/29 09:55:58;;;;;;;3.30;0.40;;;;;;;17.39;89.17;101676.34;5047627;28;20039;-81
2022/10/29 09:58:26;;;;;;;5.22;0.35;;;;;;;17.50;87.42;101668.94;5050730;28;20076;-81
2022/10/29 10:00:54;;;;;;;2.55;0.50;;;;;;;17.48;86.78;101665.66;5028752;28;20354;-81
2022/10/29 10:03:53;;;;;;;2.47;0.30;;;;;;;17.47;84.02;101656.09;5047923;28;20036;-81
2022/10/29 10:06:19;;;;;;;1.35;0.30;;;;;;;17.48;88.53;101656.94;5048818;28;20040;-81
2022/10/29 10:09:04;;;;;;;4.28;0.40;;;;;;;17.37;88.68;101650.16;5050204;28;20039;-82
2022/10/29 10:11:36;;;;;;;1.75;0.50;;;;;;;17.29;91.67;101647.47;5045359;28;20384;-82
2022/10/29 10:14:08;;;;;;;2.92;0.50;;;;;;;17.28;92.71;101642.38;5048332;28;20041;-81
2022/10/29 10:16:33;;;;;;;1.58;0.30;;;;;;;17.34;92.48;101641.75;5048375;28;20032;-81
2022/10/29 10:18:59;;;;;;;1.80;0.70;;;;;;;17.62;90.33;101640.47;5051802;28;20123;-81
2022/10/29 10:21:30;;;;;;;7.45;0.50;;;;;;;17.73;88.02;101634.94;5047781;28;20095;-82
2022/10/29 10:23:57;;;;;;;1.70;0.45;;;;;;;17.71;88.64;101641.34;5029609;28;20029;-81
2022/10/29 10:26:31;;;;;;;2.35;0.30;;;;;;;17.79;88.15;101639.56;5047469;28;20583;-82
2022/10/29 10:29:16;;;;;;;2.47;0.47;;;;;;;17.75;87.06;101630.31;5047974;28;20091;-82
2022/10/29 10:31:47;;;;;;;3.83;1.10;;;;;;;17.95;87.58;101632.66;5060331;28;20349;-82
2022/10/29 10:34:20;;;;;;;1.75;0.30;;;;;;;18.06;87.21;101621.75;5047009;28;20032;-82
2022/10/29 10:36:52;;;;;;;5.18;0.63;;;;;;;18.15;86.51;101632.13;5048139;28;20108;-82
2022/10/29 10:39:20;;;;;;;3.95;0.40;;;;;;;18.20;86.60;101627.19;5047406;28;20028;-82
2022/10/29 10:41:49;;;;;;;1.63;0.40;;;;;;;18.16;87.37;101620.59;5049727;28;20036;-82
2022/10/29 10:44:14;;;;;;;3.72;0.50;;;;;;;18.12;88.62;101618.47;5047556;28;20148;-81
2022/10/29 10:46:42;;;;;;;4.03;0.65;;;;;;;18.10;88.09;101618.63;5047484;28;20099;-81
2022/10/29 10:49:15;;;;;;;5.30;0.40;;;;;;;18.14;88.13;101622.56;5047860;28;20025;-82
2022/10/29 10:51:49;;;;;;;3.47;0.40;;;;;;;18.29;87.75;101624.56;5049713;28;20033;-83
2022/10/29 10:54:40;;;;;;;3.33;0.60;;;;;;;18.34;85.74;101620.41;5046074;28;20040;-82
2022/10/29 10:57:12;;;;;;;5.13;0.32;;;;;;;18.33;86.26;101620.59;5047921;28;20040;-82
2022/10/29 10:59:49;;;;;;;7.68;0.30;;;;;;;18.52;84.45;101609.66;5047651;28;20461;-82
2022/10/29 11:02:24;;;;;;;4.07;0.45;;;;;;;18.66;82.69;101616.91;5045672;28;20136;-83
2022/10/29 11:04:59;;;;;;;2.05;0.63;;;;;;;18.72;83.56;101616.22;5048247;28;20077;-82
2022/10/29 11:07:41;;;;;;;3.80;0.63;;;;;;;18.83;79.56;101615.06;5028157;28;20132;-83
2022/10/29 11:10:11;;;;;;;6.28;0.65;;;;;;;18.93;82.10;101604.25;5059534;28;20085;-82
2022/10/29 11:12:48;;;;;;;4.97;0.35;;;;;;;18.82;83.89;101603.66;5058872;28;20437;-82
2022/10/29 11:15:38;;;;;;;3.08;0.50;;;;;;;18.73;83.15;101595.94;5056108;28;20062;-82
2022/10/29 11:18:09;;;;;;;4.53;0.50;;;;;;;18.79;83.10;101601.38;5059063;28;20036;-82
2022/10/29 11:20:36;;;;;;;2.28;0.35;;;;;;;18.95;82.29;101597.00;5039544;28;20044;-82
2022/10/29 11:23:33;;;;;;;3.08;0.65;;;;;;;19.07;78.73;101593.81;5052800;28;20083;-82
2022/10/29 11:26:12;;;;;;;3.85;0.38;;;;;;;19.14;80.28;101596.56;5055156;28;20299;-82
2022/10/29 11:28:53;;;;;;;2.40;0.57;;;;;;;19.14;82.17;101593.94;5048969;28;20037;-82
2022/10/29 11:31:26;;;;;;;3.20;0.50;;;;;;;19.04;81.37;101596.78;5048143;28;20039;-82